Glenville, WV (26351)

10:13 PM EDT on July 28, 2014 (GMT -0400)
Brooklyn Point (KWVGLENV3) Elev 732 ft | 38.94 °N, 80.84 °W | Change Station

Current weather conditions updated 7 minutes ago

Partly Cloudy
Partly Cloudy
62.6 °F
Feels Like 62.6 °F
N
0.0
Wind Variable Wind from WNW

Tomorrow is forecast to be Cooler than today.

Today
High -- | Low -- °F
--% Chance of Precip.
Yesterday
High -- | Low -- °F
Precip. -- in
6:20 AM 8:38 PM
Waxing Crescent, 4% visible
Pressure 29.93 in
Visibility 10.0 miles
Clouds Few 7000 ft
Dew Point 61 °F
Humidity 96%
Rainfall 0.23 in
Snow Depth Not available.
UV 0 out of 12
Pollen 4.10 out of 12
Air Quality Not available.
Flu Activity Not available.
METAR KCKB 290153Z 00000KT 10SM FEW070 15/13 A2996 RMK AO2 SLP134 T01500128

More Conditions Fewer Conditions

Pressure 29.93 in
Visibility 10.0 miles
Clouds Few 7000 ft
Dew Point 61 °F
Humidity 96%
Rainfall 0.23 in
Snow Depth Not available.
UV 0 out of 12
Pollen 4.10 out of 12
Air Quality Not available.
Flu Activity Not available.
METAR KCKB 290153Z 00000KT 10SM FEW070 15/13 A2996 RMK AO2 SLP134 T01500128

More Conditions Fewer Conditions

10-Day Weather Forecast

Almanac

Astronomy

Jul. 28, 2014 Rise Set
Actual Time 6:20 AM EDT 8:38 PM EDT
Civil Twilight 5:50 AM EDT 9:08 PM EDT
Nautical Twilight 5:13 AM EDT 9:45 PM EDT
Astronomical Twilight 4:32 AM EDT 10:25 PM EDT
Moon 7:59 AM EDT (7/28) 9:20 PM EDT (7/28)
Length of Visible Light 15h 17m
Length of Day
14h 17m
Tomorrow will be 1m 48s shorter.
Waxing Crescent, 4% of the Moon is Illuminated
Today
Waxing Crescent
Aug 3
First Quarter
Aug 10
Full
Aug 17
Last Quarter
Aug 25
New

Today's Extremes

State Highs State Lows

Community

WunderPhotos

Upload Photos

1,738,587 photos uploaded!

Nearby

Snow Depth

Station Depth Elevation
No new snow has been reported.

Earthquake Activity

City Distance Mag. Time & Date
No recent earthquake activity has been reported nearby.
Minimum magnitude displayed is 2.5.

Coastal Water Temperatures

Place Temperature
No Stations Reporting

Nearby Weather Stations

Station Location Temp. Dew Point Humidity Wind Precip. Elev Updated Type
Brooklyn Point, Glenville, WV 62.6 °F 61 °F 96% WNW  at  0.0 mph - / hr 732 ft 9:06 PM CDT Normal
Quirky Towers, Vadis, Alum Bridge, WV 64.0 °F 64 °F 99% SE  at  0.0 mph 0.00 in / hr 837 ft 10:13 PM EDT Normal
W8PY @ Harmony, West Union, WV 59.5 °F 58 °F 96% NNW  at  0.0 mph 0.00 in / hr 852 ft 10:01 PM EDT Normal
Grapevine Circle, Gassaway, WV 61.6 °F 59 °F 91% North  at  0.0 mph 0.00 in / hr 1270 ft 10:10 PM EDT Normal
Frame Circle, Gassaway, WV 59.6 °F 58 °F 94% ENE  at  0.0 mph 0.00 in / hr 890 ft 10:13 PM EDT Rapid Fire

Show More Stations Show Fewer Stations